Time;durP1;ratioP1;P1;durP2;ratioP2;P2;SDS_P1;SDS_P2;PMS_P1;PMS_P2;Temp;Humidity;BMP_temperature;BMP_pressure;BME280_temperature;BME280_humidity;BME280_pressure;Samples;Min_cycle;Max_cycle;Signal;HPM_P1;HPM_P2
2023/06/26 00:03:23;;;;;;;9.07;4.45;;;;;;;;;;10339812;28;20041;-85
2023/06/26 00:08:26;;;;;;;11.77;4.80;;;;;;;;;;10347952;28;20067;-83
2023/06/26 00:13:30;;;;;;;9.30;5.03;;;;;;;;;;10351454;28;20133;-83
2023/06/26 00:18:32;;;;;;;10.48;4.65;;;;;;;;;;10358054;28;20495;-84
2023/06/26 00:23:36;;;;;;;10.13;4.77;;;;;;;;;;10350544;28;20514;-80
2023/06/26 00:28:43;;;;;;;10.88;4.80;;;;;;;;;;10355551;28;20050;-81
2023/06/26 00:33:45;;;;;;;9.68;4.88;;;;;;;;;;10356727;28;20034;-82
2023/06/26 00:38:48;;;;;;;9.70;4.97;;;;;;;;;;10354355;28;20069;-81
2023/06/26 00:43:52;;;;;;;7.97;3.80;;;;;;;;;;10348899;28;20039;-81
2023/06/26 00:48:56;;;;;;;9.18;4.45;;;;;;;;;;10349821;28;20049;-81
2023/06/26 00:53:58;;;;;;;;;;;;;;;;;;10352592;28;20287;-81
2023/06/26 00:59:03;;;;;;;10.25;4.78;;;;;;;;;;10349455;28;20394;-81
2023/06/26 01:04:06;;;;;;;9.15;4.47;;;;;;;;;;10344857;28;20121;-80
2023/06/26 01:09:09;;;;;;;9.07;4.13;;;;;;;;;;10362994;28;20108;-81
2023/06/26 01:14:13;;;;;;;8.15;3.92;;;;;;;;;;10357335;28;20097;-80
2023/06/26 01:19:24;;;;;;;9.13;4.78;;;;;;;;;;10348114;28;20038;-81
2023/06/26 01:24:32;;;;;;;10.80;4.50;;;;;;;;;;10353382;28;20034;-82
2023/06/26 01:29:37;;;;;;;9.18;4.22;;;;;;;;;;10347418;28;20410;-81
2023/06/26 01:34:40;;;;;;;10.57;4.70;;;;;;;;;;10354599;28;20042;-81
2023/06/26 01:39:43;;;;;;;9.55;4.65;;;;;;;;;;10350656;28;20129;-83
2023/06/26 01:44:47;;;;;;;9.70;4.63;;;;;;;;;;10352319;28;20070;-82
2023/06/26 01:49:52;;;;;;;12.10;4.70;;;;;;;;;;10362124;28;20049;-83
2023/06/26 01:54:57;;;;;;;9.35;4.60;;;;;;;;;;10356696;28;20053;-80
2023/06/26 02:00:02;;;;;;;11.60;4.95;;;;;;;;;;10345819;28;20094;-81
2023/06/26 02:05:05;;;;;;;9.13;4.45;;;;;;;;;;10356376;28;20537;-81
2023/06/26 02:10:08;;;;;;;10.37;3.97;;;;;;;;;;10358325;28;20042;-80
2023/06/26 02:15:12;;;;;;;10.80;5.15;;;;;;;;;;10352906;28;20050;-80
2023/06/26 02:20:15;;;;;;;12.93;4.97;;;;;;;;;;10352685;28;20523;-81
2023/06/26 02:25:18;;;;;;;10.97;4.93;;;;;;;;;;10328458;28;20489;-81
2023/06/26 02:30:22;;;;;;;;;;;;;;;;;;10345030;28;20308;-81
2023/06/26 02:35:26;;;;;;;9.20;4.00;;;;;;;;;;10342468;28;19922;-81
2023/06/26 02:40:28;;;;;;;11.50;5.30;;;;;;;;;;10343318;28;20043;-81
2023/06/26 02:45:31;;;;;;;11.80;4.57;;;;;;;;;;10341038;28;20129;-81
2023/06/26 02:50:35;;;;;;;8.80;4.07;;;;;;;;;;10353816;28;20042;-81
2023/06/26 02:55:39;;;;;;;10.23;5.20;;;;;;;;;;10349367;28;20184;-80
2023/06/26 03:00:42;;;;;;;10.35;4.97;;;;;;;;;;10362142;28;20104;-81
2023/06/26 03:05:47;;;;;;;10.88;4.80;;;;;;;;;;10354157;28;20045;-82
2023/06/26 03:10:50;;;;;;;9.88;4.45;;;;;;;;;;10334949;28;20050;-80
2023/06/26 03:15:53;;;;;;;12.48;5.00;;;;;;;;;;10349643;28;20193;-79
2023/06/26 03:20:57;;;;;;;11.60;4.88;;;;;;;;;;10345602;28;20065;-80
2023/06/26 03:26:00;;;;;;;13.88;4.82;;;;;;;;;;10352365;28;20129;-81
2023/06/26 03:31:03;;;;;;;11.02;5.15;;;;;;;;;;10325640;28;20038;-81
2023/06/26 03:36:09;;;;;;;10.55;4.93;;;;;;;;;;10345591;28;20042;-81
2023/06/26 03:41:12;;;;;;;11.68;5.28;;;;;;;;;;10351051;28;20100;-81
2023/06/26 03:46:15;;;;;;;13.00;5.10;;;;;;;;;;10351219;28;20077;-79
2023/06/26 03:51:19;;;;;;;11.17;5.10;;;;;;;;;;10355330;28;20062;-80
2023/06/26 03:56:22;;;;;;;12.60;5.20;;;;;;;;;;10366916;28;20054;-80
2023/06/26 04:01:25;;;;;;;11.90;4.75;;;;;;;;;;10336561;28;20121;-80
2023/06/26 04:06:31;;;;;;;13.40;4.80;;;;;;;;;;10352160;28;20041;-80
2023/06/26 04:11:41;;;;;;;10.63;4.88;;;;;;;;;;10350742;28;20038;-78
2023/06/26 04:16:57;;;;;;;11.18;4.70;;;;;;;;;;10332055;28;20070;-80
2023/06/26 04:22:09;;;;;;;11.50;5.00;;;;;;;;;;10318015;28;20049;-81
2023/06/26 04:27:31;;;;;;;11.38;5.18;;;;;;;;;;10350307;28;20521;-80
2023/06/26 04:32:39;;;;;;;11.75;5.28;;;;;;;;;;10354945;28;20048;-80
2023/06/26 04:43:21;;;;;;;11.80;4.82;;;;;;;;;;10339169;28;20046;-83
2023/06/26 04:48:32;;;;;;;10.60;5.05;;;;;;;;;;10361986;28;20373;-81
2023/06/26 04:58:59;;;;;;;12.27;4.97;;;;;;;;;;10326655;28;20046;-81
2023/06/26 05:04:05;;;;;;;9.60;4.43;;;;;;;;;;10347699;28;20057;-82
2023/06/26 05:09:28;;;;;;;11.40;5.30;;;;;;;;;;10349344;28;20053;-80
2023/06/26 05:14:46;;;;;;;10.32;5.22;;;;;;;;;;10346096;28;20050;-82
2023/06/26 05:19:58;;;;;;;10.90;5.18;;;;;;;;;;10344768;28;20507;-82
2023/06/26 05:25:22;;;;;;;10.55;5.10;;;;;;;;;;10349518;28;20097;-80
2023/06/26 05:30:30;;;;;;;10.75;4.85;;;;;;;;;;10345405;28;20143;-82
2023/06/26 05:35:44;;;;;;;10.95;4.72;;;;;;;;;;10362639;28;20492;-82
2023/06/26 05:40:59;;;;;;;10.57;5.38;;;;;;;;;;10346056;28;20177;-82
2023/06/26 05:46:06;;;;;;;11.40;4.88;;;;;;;;;;10337337;28;20042;-80
2023/06/26 05:51:19;;;;;;;8.98;4.50;;;;;;;;;;10325996;28;20100;-77
2023/06/26 05:56:31;;;;;;;11.82;4.75;;;;;;;;;;10329765;28;20041;-77
2023/06/26 06:01:43;;;;;;;6.05;2.72;;;;;;;;;;10354470;28;20072;-77
2023/06/26 06:06:56;;;;;;;10.57;4.93;;;;;;;;;;10343488;28;20112;-77
2023/06/26 06:12:03;;;;;;;;;;;;;;;;;;10331278;28;20046;-77
2023/06/26 06:17:10;;;;;;;11.10;4.72;;;;;;;;;;10350032;28;19956;-77
2023/06/26 06:27:36;;;;;;;8.82;4.07;;;;;;;;;;10353407;28;20081;-77
2023/06/26 06:33:01;;;;;;;10.65;5.10;;;;;;;;;;10344478;28;20117;-77
2023/06/26 06:38:09;;;;;;;7.72;3.67;;;;;;;;;;10326380;28;20129;-77
2023/06/26 06:43:17;;;;;;;10.65;4.97;;;;;;;;;;10338876;28;20039;-78
2023/06/26 06:48:39;;;;;;;9.57;4.47;;;;;;;;;;10336467;28;20049;-77
2023/06/26 06:53:47;;;;;;;11.02;4.90;;;;;;;;;;10333154;28;20812;-77
2023/06/26 06:58:57;;;;;;;9.07;4.80;;;;;;;;;;10355297;28;20037;-76
2023/06/26 07:04:04;;;;;;;9.98;4.65;;;;;;;;;;10355168;28;20711;-78
2023/06/26 07:09:11;;;;;;;8.15;4.03;;;;;;;;;;10339682;28;20353;-77
2023/06/26 07:14:20;;;;;;;11.75;5.25;;;;;;;;;;10354650;28;20046;-78
2023/06/26 07:19:40;;;;;;;8.70;4.80;;;;;;;;;;10351284;28;20046;-77
2023/06/26 07:24:47;;;;;;;10.65;5.45;;;;;;;;;;10348869;28;20128;-77
2023/06/26 07:29:59;;;;;;;8.63;5.03;;;;;;;;;;10345510;28;20046;-77
2023/06/26 07:35:09;;;;;;;7.75;4.78;;;;;;;;;;10347367;28;20058;-77
2023/06/26 07:40:17;;;;;;;7.60;4.82;;;;;;;;;;10329645;28;20046;-77
2023/06/26 07:45:26;;;;;;;9.02;4.50;;;;;;;;;;10345834;28;20058;-77
2023/06/26 07:50:33;;;;;;;8.63;4.60;;;;;;;;;;10332793;28;20072;-76
2023/06/26 07:55:58;;;;;;;8.45;4.53;;;;;;;;;;10341742;28;20277;-76
2023/06/26 08:01:06;;;;;;;11.52;5.75;;;;;;;;;;10333255;28;20077;-77
2023/06/26 08:06:14;;;;;;;11.88;5.57;;;;;;;;;;10337171;28;20049;-78
2023/06/26 08:11:24;;;;;;;8.77;5.05;;;;;;;;;;10354710;28;20042;-77
2023/06/26 08:16:30;;;;;;;9.27;5.88;;;;;;;;;;10348636;28;20133;-77
2023/06/26 08:21:51;;;;;;;9.40;5.70;;;;;;;;;;10346685;28;20264;-77
2023/06/26 08:26:59;;;;;;;8.38;6.00;;;;;;;;;;10347451;28;20052;-76
2023/06/26 08:32:15;;;;;;;8.68;6.25;;;;;;;;;;10341007;28;20044;-77
2023/06/26 08:37:32;;;;;;;10.45;6.10;;;;;;;;;;10348606;28;20436;-77
2023/06/26 08:42:55;;;;;;;7.63;5.93;;;;;;;;;;10325876;28;20792;-77
2023/06/26 08:48:12;;;;;;;7.40;5.90;;;;;;;;;;10327918;28;20108;-78
2023/06/26 08:53:29;;;;;;;6.80;6.05;;;;;;;;;;10343191;28;20042;-77
2023/06/26 08:58:40;;;;;;;9.68;5.68;;;;;;;;;;10321539;28;20621;-76
2023/06/26 09:03:48;;;;;;;8.40;5.85;;;;;;;;;;10345304;28;20054;-77
2023/06/26 09:08:56;;;;;;;7.70;6.05;;;;;;;;;;10345251;28;20048;-76
2023/06/26 09:14:00;;;;;;;6.38;5.78;;;;;;;;;;10327103;28;20045;-77
2023/06/26 09:19:09;;;;;;;7.93;6.38;;;;;;;;;;10319709;28;20045;-77
2023/06/26 09:24:16;;;;;;;10.18;6.00;;;;;;;;;;10319224;28;20486;-77
2023/06/26 09:29:22;;;;;;;6.95;6.25;;;;;;;;;;10339066;28;20056;-77
2023/06/26 09:34:33;;;;;;;11.20;6.53;;;;;;;;;;10343358;28;20042;-76
2023/06/26 09:39:38;;;;;;;5.82;5.22;;;;;;;;;;10340636;28;20060;-77
2023/06/26 09:44:45;;;;;;;6.60;6.00;;;;;;;;;;10336306;28;20081;-78
2023/06/26 09:49:57;;;;;;;6.15;5.28;;;;;;;;;;10310281;28;20494;-78
2023/06/26 09:55:17;;;;;;;5.13;4.07;;;;;;;;;;10349512;28;20062;-77
2023/06/26 10:00:24;;;;;;;6.20;5.60;;;;;;;;;;10333192;28;20519;-77
2023/06/26 10:05:32;;;;;;;7.20;4.72;;;;;;;;;;10342153;28;20041;-77
2023/06/26 10:10:48;;;;;;;7.80;5.20;;;;;;;;;;10339674;28;20120;-77
2023/06/26 10:15:55;;;;;;;5.75;5.22;;;;;;;;;;10341091;28;20538;-77
2023/06/26 10:21:10;;;;;;;4.95;4.05;;;;;;;;;;10316261;28;20065;-77
2023/06/26 10:26:31;;;;;;;7.97;5.55;;;;;;;;;;10331499;28;20161;-77
2023/06/26 10:31:36;;;;;;;;;;;;;;;;;;10342663;28;20077;-78
2023/06/26 10:36:51;;;;;;;5.72;5.22;;;;;;;;;;10323610;28;20035;-77
2023/06/26 10:42:19;;;;;;;5.13;4.63;;;;;;;;;;10338532;28;20042;-78
2023/06/26 10:47:37;;;;;;;5.53;4.30;;;;;;;;;;10344244;28;20429;-77
2023/06/26 10:52:47;;;;;;;5.47;4.90;;;;;;;;;;10323203;28;20053;-76
2023/06/26 10:58:21;;;;;;;5.60;4.82;;;;;;;;;;10318208;28;20068;-77
2023/06/26 11:03:31;;;;;;;5.68;3.92;;;;;;;;;;10315179;28;20539;-77
2023/06/26 11:08:48;;;;;;;6.57;4.50;;;;;;;;;;10344419;28;20535;-76
2023/06/26 11:14:03;;;;;;;4.50;3.92;;;;;;;;;;10319640;28;20486;-76
2023/06/26 11:19:08;;;;;;;6.00;4.82;;;;;;;;;;10315838;28;20058;-77
2023/06/26 11:24:16;;;;;;;7.45;5.28;;;;;;;;;;10338934;28;20452;-76
2023/06/26 11:29:24;;;;;;;;;;;;;;;;;;10341874;28;20049;-77
2023/06/26 11:34:35;;;;;;;4.85;4.20;;;;;;;;;;10334727;28;19935;-76
2023/06/26 11:39:40;;;;;;;5.97;5.37;;;;;;;;;;10347664;28;20042;-76
2023/06/26 11:44:44;;;;;;;6.50;5.32;;;;;;;;;;10345033;28;20129;-76
2023/06/26 11:49:54;;;;;;;5.55;4.97;;;;;;;;;;10338598;28;20064;-77
2023/06/26 11:55:02;;;;;;;6.40;4.78;;;;;;;;;;10351203;28;20058;-77
2023/06/26 12:00:12;;;;;;;5.45;4.53;;;;;;;;;;10320127;28;20061;-76
2023/06/26 12:05:28;;;;;;;6.82;5.28;;;;;;;;;;10328580;28;20042;-75
2023/06/26 12:10:33;;;;;;;8.63;4.78;;;;;;;;;;10343320;28;20053;-77
2023/06/26 12:15:42;;;;;;;;;;;;;;;;;;10343227;28;20045;-77
2023/06/26 12:20:59;;;;;;;11.38;5.32;;;;;;;;;;10346329;28;19932;-75
2023/06/26 12:26:25;;;;;;;9.40;5.55;;;;;;;;;;10344751;28;20042;-76
2023/06/26 12:32:00;;;;;;;6.95;5.20;;;;;;;;;;10342061;28;20543;-77
2023/06/26 12:37:13;;;;;;;5.75;4.78;;;;;;;;;;10346326;28;20046;-77
2023/06/26 12:42:49;;;;;;;5.57;3.97;;;;;;;;;;10346292;28;20535;-77
2023/06/26 12:48:07;;;;;;;7.75;4.13;;;;;;;;;;10323191;28;20052;-77
2023/06/26 12:53:18;;;;;;;6.00;4.55;;;;;;;;;;10324958;28;20058;-76
2023/06/26 12:58:31;;;;;;;6.88;5.20;;;;;;;;;;10324040;28;20046;-77
2023/06/26 13:03:34;;;;;;;;;;;;;;;;;;10343302;28;20048;-77
2023/06/26 13:08:53;;;;;;;7.30;4.78;;;;;;;;;;10328253;28;19980;-77
2023/06/26 13:14:08;;;;;;;7.45;5.30;;;;;;;;;;10344512;28;20698;-78
2023/06/26 13:19:14;;;;;;;6.17;4.90;;;;;;;;;;10348487;28;20038;-79
2023/06/26 13:24:43;;;;;;;7.10;5.50;;;;;;;;;;10345982;28;20641;-77
2023/06/26 13:29:53;;;;;;;;;;;;;;;;;;10331003;28;20053;-76
2023/06/26 13:35:11;;;;;;;9.02;5.32;;;;;;;;;;10340199;28;20615;-77
2023/06/26 13:40:18;;;;;;;7.97;5.63;;;;;;;;;;10320342;28;20042;-77
2023/06/26 13:51:11;;;;;;;10.17;5.67;;;;;;;;;;10339793;28;20594;-78
2023/06/26 13:56:17;;;;;;;7.35;5.15;;;;;;;;;;10331567;28;20060;-76
2023/06/26 14:01:23;;;;;;;8.27;5.60;;;;;;;;;;10333064;28;20940;-77
2023/06/26 14:07:01;;;;;;;9.80;5.32;;;;;;;;;;10340733;28;20137;-78
2023/06/26 14:12:09;;;;;;;9.02;5.75;;;;;;;;;;10330101;28;20104;-76
2023/06/26 14:17:26;;;;;;;8.60;5.63;;;;;;;;;;10329414;28;20057;-77
2023/06/26 14:22:32;;;;;;;7.35;5.18;;;;;;;;;;10321968;28;20046;-77
2023/06/26 14:27:42;;;;;;;7.85;4.82;;;;;;;;;;10338481;28;20042;-75
2023/06/26 14:32:57;;;;;;;7.57;5.40;;;;;;;;;;10338386;28;20116;-76
2023/06/26 14:38:17;;;;;;;8.95;5.72;;;;;;;;;;10340142;28;20046;-76
2023/06/26 14:43:23;;;;;;;8.43;5.25;;;;;;;;;;10302077;28;20144;-78
2023/06/26 14:48:31;;;;;;;8.55;6.07;;;;;;;;;;10335655;28;20046;-78
2023/06/26 14:53:42;;;;;;;9.50;6.00;;;;;;;;;;10323427;28;20156;-78
2023/06/26 14:58:52;;;;;;;8.40;6.15;;;;;;;;;;10321486;28;20047;-78
2023/06/26 15:09:28;;;;;;;10.70;6.53;;;;;;;;;;10507925;27;20408;-77
2023/06/26 15:14:30;;;;;;;10.55;6.68;;;;;;;;;;10473336;28;20054;-78
2023/06/26 15:19:34;;;;;;;8.45;5.88;;;;;;;;;;10471605;28;20041;-77
2023/06/26 15:24:38;;;;;;;9.98;6.25;;;;;;;;;;10470351;28;20102;-76
2023/06/26 15:29:41;;;;;;;12.88;6.65;;;;;;;;;;10467723;28;20053;-77
2023/06/26 15:34:43;;;;;;;9.25;5.85;;;;;;;;;;10474005;28;20525;-78
2023/06/26 15:39:48;;;;;;;7.20;5.13;;;;;;;;;;10465417;28;20561;-78
2023/06/26 15:44:50;;;;;;;8.63;5.95;;;;;;;;;;10459982;28;20045;-78
2023/06/26 15:49:53;;;;;;;7.68;5.25;;;;;;;;;;10461546;28;20052;-78
2023/06/26 15:54:57;;;;;;;9.73;5.85;;;;;;;;;;10466293;28;20654;-77
2023/06/26 16:00:00;;;;;;;10.15;5.25;;;;;;;;;;10464298;28;20079;-77
2023/06/26 16:05:03;;;;;;;9.05;4.68;;;;;;;;;;10465327;28;20048;-78
2023/06/26 16:10:08;;;;;;;9.35;5.50;;;;;;;;;;10461524;28;20064;-76
2023/06/26 16:15:11;;;;;;;10.98;5.00;;;;;;;;;;10464675;28;20041;-78
2023/06/26 16:20:16;;;;;;;6.68;4.25;;;;;;;;;;10440005;28;20059;-78
2023/06/26 16:25:24;;;;;;;10.48;5.63;;;;;;;;;;10431564;28;20065;-76
2023/06/26 16:30:27;;;;;;;9.30;5.90;;;;;;;;;;10479611;28;20378;-78
2023/06/26 16:35:33;;;;;;;11.93;6.05;;;;;;;;;;10477889;28;20128;-77
2023/06/26 16:40:37;;;;;;;8.45;5.68;;;;;;;;;;10475371;28;20512;-76
2023/06/26 16:45:41;;;;;;;9.40;5.68;;;;;;;;;;10476980;28;20458;-77
2023/06/26 16:50:44;;;;;;;8.95;5.45;;;;;;;;;;10475726;28;20056;-78
2023/06/26 16:55:48;;;;;;;10.48;5.82;;;;;;;;;;10480549;28;20040;-77
2023/06/26 17:00:52;;;;;;;11.30;5.68;;;;;;;;;;10474311;28;20040;-77
2023/06/26 17:05:54;;;;;;;8.68;5.72;;;;;;;;;;10480380;28;20109;-79
2023/06/26 17:10:59;;;;;;;11.65;6.28;;;;;;;;;;10476244;28;20051;-78
2023/06/26 17:16:02;;;;;;;8.55;6.00;;;;;;;;;;10486642;28;20142;-77
2023/06/26 17:21:05;;;;;;;8.13;5.25;;;;;;;;;;10473802;28;20123;-77
2023/06/26 17:26:10;;;;;;;8.90;5.65;;;;;;;;;;10474545;28;20473;-77
2023/06/26 17:31:13;;;;;;;9.60;6.13;;;;;;;;;;10471921;28;20131;-77
2023/06/26 17:36:16;;;;;;;10.40;6.60;;;;;;;;;;10473221;28;20052;-76
2023/06/26 17:41:20;;;;;;;10.55;5.88;;;;;;;;;;10473317;28;20155;-77
2023/06/26 17:46:23;;;;;;;12.57;6.05;;;;;;;;;;10479837;28;20044;-77
2023/06/26 17:51:25;;;;;;;15.07;8.20;;;;;;;;;;10488123;28;20413;-77
2023/06/26 17:56:29;;;;;;;10.70;6.15;;;;;;;;;;10476685;28;20037;-77
2023/06/26 18:01:32;;;;;;;9.60;6.40;;;;;;;;;;10477607;28;20116;-77
2023/06/26 18:06:34;;;;;;;11.23;6.60;;;;;;;;;;10470805;28;20036;-77
2023/06/26 18:11:39;;;;;;;10.30;6.65;;;;;;;;;;10476821;28;20048;-77
2023/06/26 18:16:42;;;;;;;11.98;7.68;;;;;;;;;;10472044;28;20576;-77
2023/06/26 18:21:45;;;;;;;12.60;6.75;;;;;;;;;;10473491;28;20048;-78
2023/06/26 18:26:49;;;;;;;11.70;6.60;;;;;;;;;;10484950;28;20151;-78
2023/06/26 18:31:52;;;;;;;12.13;6.45;;;;;;;;;;10478885;28;20419;-78
2023/06/26 18:36:56;;;;;;;12.57;7.07;;;;;;;;;;10475257;28;20128;-78
2023/06/26 18:42:01;;;;;;;10.20;6.43;;;;;;;;;;10485691;28;20088;-77
2023/06/26 18:47:04;;;;;;;9.98;6.57;;;;;;;;;;10473890;28;20401;-77
2023/06/26 18:52:07;;;;;;;10.85;5.57;;;;;;;;;;10475896;28;20044;-77
2023/06/26 18:57:11;;;;;;;12.98;6.80;;;;;;;;;;10478627;28;20055;-76
2023/06/26 19:02:14;;;;;;;10.38;6.32;;;;;;;;;;10473125;28;20053;-76
2023/06/26 19:07:16;;;;;;;11.48;6.13;;;;;;;;;;10480110;28;20059;-77
2023/06/26 19:12:22;;;;;;;12.20;6.20;;;;;;;;;;10478317;28;20755;-78
2023/06/26 19:17:25;;;;;;;14.55;6.10;;;;;;;;;;10473352;28;20075;-76
2023/06/26 19:22:29;;;;;;;10.50;6.22;;;;;;;;;;10471277;28;20052;-77
2023/06/26 19:27:33;;;;;;;16.00;5.90;;;;;;;;;;10472276;28;20132;-75
2023/06/26 19:32:36;;;;;;;9.05;5.28;;;;;;;;;;10469434;28;20659;-76
2023/06/26 19:37:39;;;;;;;;;;;;;;;;;;10476226;28;20045;-77
2023/06/26 19:42:59;;;;;;;11.70;5.20;;;;;;;;;;10479397;28;20319;-76
2023/06/26 19:48:02;;;;;;;10.27;5.50;;;;;;;;;;10478367;28;20044;-78
2023/06/26 19:53:04;;;;;;;15.63;6.15;;;;;;;;;;10481393;28;20040;-77
2023/06/26 19:58:09;;;;;;;10.85;5.30;;;;;;;;;;10486339;28;20046;-76
2023/06/26 20:03:12;;;;;;;9.15;5.32;;;;;;;;;;10494784;28;20086;-76
2023/06/26 20:08:14;;;;;;;10.23;5.13;;;;;;;;;;10496924;28;20041;-76
2023/06/26 20:13:18;;;;;;;9.13;5.03;;;;;;;;;;10486562;28;20036;-77
2023/06/26 20:18:22;;;;;;;8.75;4.70;;;;;;;;;;10492704;28;20040;-75
2023/06/26 20:23:25;;;;;;;9.63;5.10;;;;;;;;;;10506040;28;20061;-77
2023/06/26 20:28:29;;;;;;;9.80;4.28;;;;;;;;;;10489928;28;20041;-76
2023/06/26 20:33:31;;;;;;;8.85;4.70;;;;;;;;;;10486839;28;20070;-77
2023/06/26 20:38:34;;;;;;;12.85;5.25;;;;;;;;;;10493228;28;20032;-76
2023/06/26 20:43:39;;;;;;;9.48;4.88;;;;;;;;;;10481468;28;20090;-77
2023/06/26 20:48:41;;;;;;;8.15;4.95;;;;;;;;;;10484231;28;20040;-77
2023/06/26 20:53:44;;;;;;;;;;;;;;;;;;10485753;28;20049;-77
2023/06/26 20:58:48;;;;;;;10.68;5.18;;;;;;;;;;10486599;28;19925;-77
2023/06/26 21:03:51;;;;;;;11.27;5.07;;;;;;;;;;10487312;28;20044;-76
2023/06/26 21:08:54;;;;;;;13.45;5.13;;;;;;;;;;10479706;28;20121;-77
2023/06/26 21:13:58;;;;;;;8.35;4.70;;;;;;;;;;10483994;28;20058;-76
2023/06/26 21:19:01;;;;;;;10.63;4.28;;;;;;;;;;10485701;28;20063;-77
2023/06/26 21:24:04;;;;;;;8.52;4.53;;;;;;;;;;10484166;28;20044;-77
2023/06/26 21:29:08;;;;;;;9.13;5.07;;;;;;;;;;10479602;28;20047;-76
2023/06/26 21:34:11;;;;;;;11.15;4.90;;;;;;;;;;10482426;28;20098;-76
2023/06/26 21:39:13;;;;;;;9.23;4.10;;;;;;;;;;10480452;28;20035;-76
2023/06/26 21:44:17;;;;;;;8.65;4.60;;;;;;;;;;10481650;28;20234;-77
2023/06/26 21:49:20;;;;;;;9.98;4.50;;;;;;;;;;10475585;28;20044;-76
2023/06/26 21:54:22;;;;;;;9.13;4.43;;;;;;;;;;10475389;28;20651;-74
2023/06/26 21:59:26;;;;;;;12.48;3.85;;;;;;;;;;10458046;28;20037;-77
2023/06/26 22:04:29;;;;;;;6.03;3.00;;;;;;;;;;10478239;28;20052;-78
2023/06/26 22:09:31;;;;;;;5.50;3.00;;;;;;;;;;10467294;28;20493;-78
2023/06/26 22:14:36;;;;;;;5.50;3.00;;;;;;;;;;10478032;28;20447;-78
2023/06/26 22:19:40;;;;;;;6.20;3.08;;;;;;;;;;10470255;28;20033;-79
2023/06/26 22:24:43;;;;;;;9.60;3.47;;;;;;;;;;10458518;28;20498;-77
2023/06/26 22:29:47;;;;;;;7.75;3.70;;;;;;;;;;10472887;28;20037;-77
2023/06/26 22:34:50;;;;;;;7.18;3.15;;;;;;;;;;10477615;28;20048;-77
2023/06/26 22:39:53;;;;;;;6.38;3.35;;;;;;;;;;10459084;28;20041;-77
2023/06/26 22:44:56;;;;;;;7.57;3.20;;;;;;;;;;10453924;28;20076;-77
2023/06/26 22:50:00;;;;;;;5.85;2.80;;;;;;;;;;10481172;28;20482;-76
2023/06/26 22:55:02;;;;;;;5.18;2.22;;;;;;;;;;10480294;28;20207;-76
2023/06/26 23:00:10;;;;;;;6.45;2.42;;;;;;;;;;10479418;28;20561;-76
2023/06/26 23:05:13;;;;;;;6.22;2.30;;;;;;;;;;10485098;28;20060;-76
2023/06/26 23:10:15;;;;;;;4.18;2.17;;;;;;;;;;10483138;28;20082;-76
2023/06/26 23:15:19;;;;;;;5.75;2.30;;;;;;;;;;10477816;28;20504;-76
2023/06/26 23:20:22;;;;;;;5.45;2.20;;;;;;;;;;10481954;28;20044;-76
2023/06/26 23:25:33;;;;;;;3.67;1.80;;;;;;;;;;10479328;28;20155;-76
2023/06/26 23:30:42;;;;;;;5.18;2.00;;;;;;;;;;10489646;28;20029;-76
2023/06/26 23:35:46;;;;;;;4.72;1.90;;;;;;;;;;10490695;28;20044;-76
2023/06/26 23:40:49;;;;;;;5.25;1.73;;;;;;;;;;10480437;28;20044;-76
2023/06/26 23:45:53;;;;;;;3.15;1.70;;;;;;;;;;10488511;28;20072;-76
2023/06/26 23:50:56;;;;;;;6.25;1.70;;;;;;;;;;10482545;28;20043;-76
2023/06/26 23:55:59;;;;;;;3.20;1.88;;;;;;;;;;10482885;28;20084;-76
